Time;durP1;ratioP1;P1;durP2;ratioP2;P2;SDS_P1;SDS_P2;PMS_P1;PMS_P2;Temp;Humidity;BMP_temperature;BMP_pressure;BME280_temperature;BME280_humidity;BME280_pressure;Samples;Min_cycle;Max_cycle;Signal;HPM_P1;HPM_P2
2023/03/24 00:00:41;;;;;;;0.00;0.00;;;12.50;99.90;;;;;;4985772;28;20030;-87
2023/03/24 00:03:07;;;;;;;0.00;0.00;;;12.50;99.90;;;;;;4989452;28;20030;-87
2023/03/24 00:05:33;;;;;;;0.00;0.00;;;12.50;99.90;;;;;;4989165;28;20494;-88
2023/03/24 00:08:01;;;;;;;0.00;0.00;;;12.50;99.90;;;;;;4987204;28;20019;-87
2023/03/24 00:10:29;;;;;;;0.00;0.00;;;12.50;99.90;;;;;;4994110;28;20081;-88
2023/03/24 00:12:55;;;;;;;0.00;0.00;;;12.50;99.90;;;;;;4979099;28;20027;-88
2023/03/24 00:15:22;;;;;;;0.00;0.00;;;12.50;99.90;;;;;;4997422;28;20026;-87
2023/03/24 00:17:49;;;;;;;0.00;0.00;;;;;;;;;;4988033;28;20062;-87
2023/03/24 00:20:15;;;;;;;0.00;0.00;;;12.40;99.90;;;;;;4989320;28;20030;-87
2023/03/24 00:22:49;;;;;;;0.00;0.00;;;12.30;99.90;;;;;;4985353;28;20524;-87
2023/03/24 00:25:22;;;;;;;0.00;0.00;;;12.30;99.90;;;;;;4988865;28;20029;-87
2023/03/24 00:27:48;;;;;;;0.00;0.00;;;;;;;;;;4986108;28;20035;-87
2023/03/24 00:30:15;;;;;;;0.00;0.00;;;12.20;99.90;;;;;;4989694;28;20042;-87
2023/03/24 00:32:40;;;;;;;0.00;0.00;;;12.20;99.90;;;;;;4987038;28;20030;-87
2023/03/24 00:35:08;;;;;;;0.00;0.00;;;12.20;99.90;;;;;;4989127;28;20057;-87
2023/03/24 00:37:38;;;;;;;0.00;0.00;;;12.20;99.90;;;;;;4988304;28;20031;-87
2023/03/24 00:40:07;;;;;;;0.00;0.00;;;12.20;99.90;;;;;;4988844;28;20039;-88
2023/03/24 00:42:35;;;;;;;0.00;0.00;;;12.30;99.90;;;;;;4989557;28;20569;-88
2023/03/24 00:45:03;;;;;;;0.00;0.00;;;12.30;99.90;;;;;;4990233;28;20500;-88
2023/03/24 00:47:30;;;;;;;0.00;0.00;;;12.20;99.90;;;;;;4990811;28;20118;-88
2023/03/24 00:49:56;;;;;;;0.00;0.00;;;12.20;99.90;;;;;;4989225;28;20054;-87
2023/03/24 00:52:23;;;;;;;0.00;0.00;;;12.20;99.90;;;;;;4984007;28;20056;-87
2023/03/24 00:54:53;;;;;;;0.00;0.00;;;12.30;99.90;;;;;;4982090;28;20891;-87
2023/03/24 00:57:20;;;;;;;;;;;12.20;99.90;;;;;;4989995;28;20130;-88
2023/03/24 00:59:50;;;;;;;0.00;0.00;;;12.10;99.90;;;;;;4986993;28;19921;-88
2023/03/24 01:02:20;;;;;;;0.00;0.00;;;12.10;99.90;;;;;;4985930;28;20027;-86
2023/03/24 01:04:46;;;;;;;0.00;0.00;;;;;;;;;;4986333;28;20509;-87
2023/03/24 01:07:16;;;;;;;0.00;0.00;;;12.10;99.90;;;;;;4982652;28;20170;-88
2023/03/24 01:09:43;;;;;;;0.00;0.00;;;12.10;99.90;;;;;;4984867;28;20039;-87
2023/03/24 01:12:09;;;;;;;0.00;0.00;;;12.00;99.90;;;;;;4981982;28;20045;-88
2023/03/24 01:14:34;;;;;;;0.00;0.00;;;12.10;99.90;;;;;;4984882;28;20026;-87
2023/03/24 01:17:00;;;;;;;0.00;0.00;;;12.10;99.90;;;;;;4988649;28;20142;-87
2023/03/24 01:19:26;;;;;;;0.00;0.00;;;12.00;99.90;;;;;;5000377;28;20043;-87
2023/03/24 01:21:53;;;;;;;0.00;0.00;;;11.90;99.90;;;;;;4989473;28;20105;-87
2023/03/24 01:24:20;;;;;;;0.00;0.00;;;12.00;99.90;;;;;;4984295;28;20025;-88
2023/03/24 01:26:46;;;;;;;0.00;0.00;;;12.00;99.90;;;;;;4987762;28;20325;-87
2023/03/24 01:29:11;;;;;;;0.00;0.00;;;12.00;99.90;;;;;;4984828;28;20371;-87
2023/03/24 01:31:37;;;;;;;0.00;0.00;;;12.00;99.90;;;;;;4983112;28;20528;-87
2023/03/24 01:34:02;;;;;;;0.00;0.00;;;12.00;99.90;;;;;;4985982;28;20038;-87
2023/03/24 01:36:28;;;;;;;0.00;0.00;;;12.10;99.90;;;;;;4986451;28;20524;-87
2023/03/24 01:38:54;;;;;;;0.00;0.00;;;12.10;99.90;;;;;;4987135;28;20057;-87
2023/03/24 01:41:20;;;;;;;0.00;0.00;;;;;;;;;;4996431;28;20120;-88
2023/03/24 01:43:45;;;;;;;0.00;0.00;;;12.00;99.90;;;;;;4982932;28;20034;-87
2023/03/24 01:46:20;;;;;;;0.00;0.00;;;12.00;99.90;;;;;;4990112;28;20023;-87
2023/03/24 01:49:00;;;;;;;0.00;0.00;;;12.10;99.90;;;;;;4988723;28;20297;-88
2023/03/24 01:51:43;;;;;;;0.00;0.00;;;12.10;99.90;;;;;;4986490;28;20537;-88
2023/03/24 01:54:17;;;;;;;0.00;0.00;;;12.00;99.90;;;;;;4990926;28;20414;-88
2023/03/24 01:56:47;;;;;;;0.00;0.00;;;12.00;99.90;;;;;;4983378;28;20039;-88
2023/03/24 01:59:19;;;;;;;0.00;0.00;;;11.90;99.90;;;;;;4983171;28;20042;-88
2023/03/24 02:01:45;;;;;;;0.00;0.00;;;12.00;99.90;;;;;;4983491;28;20259;-88
2023/03/24 02:04:12;;;;;;;0.00;0.00;;;12.00;99.90;;;;;;4984635;28;20034;-87
2023/03/24 02:06:42;;;;;;;0.00;0.00;;;12.00;99.90;;;;;;4990759;28;20034;-88
2023/03/24 02:09:11;;;;;;;0.00;0.00;;;12.00;99.90;;;;;;4984933;28;20493;-88
2023/03/24 02:11:38;;;;;;;0.00;0.00;;;12.00;99.90;;;;;;4982101;28;20125;-88
2023/03/24 02:14:06;;;;;;;0.00;0.00;;;12.00;99.90;;;;;;4987508;28;20465;-87
2023/03/24 02:17:05;;;;;;;0.00;0.00;;;12.20;99.90;;;;;;4993829;28;20123;-87
2023/03/24 02:19:58;;;;;;;0.00;0.00;;;12.10;99.90;;;;;;4991560;28;20658;-87
2023/03/24 02:22:38;;;;;;;0.00;0.00;;;12.10;99.90;;;;;;4988418;28;20023;-87
2023/03/24 02:25:47;;;;;;;0.00;0.00;;;12.10;99.90;;;;;;4988789;28;20045;-88
2023/03/24 02:28:20;;;;;;;0.00;0.00;;;12.10;99.90;;;;;;4990382;28;20046;-88
2023/03/24 02:31:12;;;;;;;0.00;0.00;;;12.20;99.90;;;;;;4983614;28;20034;-89
2023/03/24 02:34:10;;;;;;;0.00;0.00;;;12.20;99.90;;;;;;4989218;28;20030;-88
2023/03/24 02:36:41;;;;;;;0.00;0.00;;;12.20;99.90;;;;;;4984103;28;20489;-88
2023/03/24 02:39:36;;;;;;;0.00;0.00;;;12.20;99.90;;;;;;4981968;28;20349;-88
2023/03/24 02:42:40;;;;;;;0.00;0.00;;;12.10;99.90;;;;;;4986409;28;20026;-88
2023/03/24 02:45:28;;;;;;;0.00;0.00;;;12.20;99.90;;;;;;4987826;28;20030;-88
2023/03/24 02:48:30;;;;;;;0.00;0.00;;;12.10;99.90;;;;;;4987434;28;20398;-88
2023/03/24 02:51:43;;;;;;;0.00;0.00;;;12.20;99.90;;;;;;4989680;28;20035;-88
2023/03/24 02:54:18;;;;;;;0.00;0.00;;;12.30;99.90;;;;;;4990510;28;20512;-88
2023/03/24 02:56:56;;;;;;;0.00;0.00;;;12.10;99.90;;;;;;4991038;28;20117;-89
2023/03/24 02:59:43;;;;;;;0.00;0.00;;;12.10;99.90;;;;;;4987877;28;20061;-88
2023/03/24 03:02:16;;;;;;;0.00;0.00;;;12.10;99.90;;;;;;4989547;28;20037;-87
2023/03/24 03:04:48;;;;;;;0.00;0.00;;;12.10;99.90;;;;;;4994018;28;20033;-89
2023/03/24 03:07:20;;;;;;;0.03;0.03;;;12.10;99.90;;;;;;4988760;28;20026;-88
2023/03/24 03:09:52;;;;;;;0.00;0.00;;;12.20;99.90;;;;;;4986972;28;20026;-88
2023/03/24 03:12:19;;;;;;;0.00;0.00;;;12.10;99.90;;;;;;4983822;28;20030;-88
2023/03/24 03:14:50;;;;;;;0.00;0.00;;;12.20;99.90;;;;;;4987427;28;20054;-88
2023/03/24 03:17:29;;;;;;;0.00;0.00;;;12.10;99.90;;;;;;4991065;28;20444;-87
2023/03/24 03:20:05;;;;;;;0.00;0.00;;;12.20;99.90;;;;;;4979502;28;20081;-88
2023/03/24 03:22:38;;;;;;;0.00;0.00;;;12.30;99.90;;;;;;4998290;28;20046;-87
2023/03/24 03:25:05;;;;;;;0.00;0.00;;;12.30;99.90;;;;;;4987905;28;20327;-87
2023/03/24 03:27:37;;;;;;;0.00;0.00;;;12.30;99.90;;;;;;4984085;28;20493;-87
2023/03/24 03:30:08;;;;;;;0.00;0.00;;;12.30;99.90;;;;;;4985871;28;20038;-88
2023/03/24 03:32:38;;;;;;;0.00;0.00;;;12.30;99.90;;;;;;4984308;28;20734;-88
2023/03/24 03:35:21;;;;;;;0.00;0.00;;;12.40;99.90;;;;;;4983045;28;20113;-87
2023/03/24 03:38:15;;;;;;;0.00;0.00;;;12.50;99.90;;;;;;4984951;28;20123;-87
2023/03/24 03:41:09;;;;;;;0.00;0.00;;;12.40;99.90;;;;;;4982962;28;20046;-88
2023/03/24 03:43:35;;;;;;;0.00;0.00;;;12.40;99.90;;;;;;4983783;28;20039;-87
2023/03/24 03:46:02;;;;;;;0.00;0.00;;;12.40;99.90;;;;;;4981817;28;20053;-88
2023/03/24 03:48:28;;;;;;;0.00;0.00;;;12.40;99.90;;;;;;4983107;28;20684;-87
2023/03/24 03:50:54;;;;;;;0.00;0.00;;;12.50;99.90;;;;;;4983175;28;20058;-86
2023/03/24 03:53:25;;;;;;;0.00;0.00;;;12.40;99.90;;;;;;4983442;28;20471;-87
2023/03/24 03:55:51;;;;;;;0.00;0.00;;;14.60;99.90;;;;;;4995243;28;20039;-87
2023/03/24 03:58:17;;;;;;;0.00;0.00;;;12.40;99.90;;;;;;4985708;28;20053;-87
2023/03/24 04:00:43;;;;;;;0.00;0.00;;;12.40;99.90;;;;;;4992185;28;20069;-87
2023/03/24 04:03:32;;;;;;;0.00;0.00;;;12.40;99.90;;;;;;4984799;28;20034;-89
2023/03/24 04:06:35;;;;;;;0.00;0.00;;;12.40;99.90;;;;;;4983487;28;20045;-88
2023/03/24 04:09:11;;;;;;;0.00;0.00;;;12.40;99.90;;;;;;4984363;28;20242;-87
2023/03/24 04:12:07;;;;;;;0.00;0.00;;;12.50;99.90;;;;;;4984314;28;20038;-88
2023/03/24 04:14:59;;;;;;;0.00;0.00;;;12.40;99.90;;;;;;4982359;28;20359;-86
2023/03/24 04:17:59;;;;;;;0.00;0.00;;;12.40;99.90;;;;;;4983483;28;20022;-87
2023/03/24 04:20:37;;;;;;;0.00;0.00;;;12.40;99.90;;;;;;4983975;28;20059;-87
2023/03/24 04:23:26;;;;;;;0.00;0.00;;;12.40;99.90;;;;;;4985108;28;20464;-87
2023/03/24 04:26:13;;;;;;;0.00;0.00;;;12.50;99.90;;;;;;4986866;28;20045;-87
2023/03/24 04:28:51;;;;;;;0.00;0.00;;;12.40;99.90;;;;;;4981404;28;20046;-87
2023/03/24 04:31:41;;;;;;;0.00;0.00;;;12.50;99.90;;;;;;4987326;28;20029;-88
2023/03/24 04:34:16;;;;;;;0.00;0.00;;;12.50;99.90;;;;;;5094463;23;20045;-91
2023/03/24 04:36:49;;;;;;;0.00;0.00;;;12.50;99.90;;;;;;5042668;28;20047;-92
2023/03/24 04:39:24;;;;;;;0.00;0.00;;;12.50;99.90;;;;;;5045095;28;20093;-90
2023/03/24 04:41:51;;;;;;;0.00;0.00;;;12.10;99.90;;;;;;5048778;28;20010;-90
2023/03/24 04:44:20;;;;;;;0.00;0.00;;;;;;;;;;5047057;28;20044;-90
2023/03/24 05:12:37;;;;;;;0.00;0.00;;;12.90;99.90;;;;;;4985447;28;20134;-93
2023/03/24 05:15:03;;;;;;;0.00;0.00;;;12.90;99.90;;;;;;4991507;28;20046;-93
2023/03/24 05:17:29;;;;;;;0.00;0.00;;;12.90;99.90;;;;;;4985793;28;20393;-93
2023/03/24 05:19:54;;;;;;;0.00;0.00;;;12.90;99.90;;;;;;4988259;28;20026;-91
2023/03/24 05:22:20;;;;;;;0.00;0.00;;;;;;;;;;4981214;28;20113;-93
2023/03/24 05:24:46;;;;;;;0.00;0.00;;;;;;;;;;4989362;28;20023;-93
2023/03/24 05:27:12;;;;;;;0.00;0.00;;;12.90;99.90;;;;;;4986036;28;20468;-92
2023/03/24 05:29:38;;;;;;;0.00;0.00;;;;;;;;;;4983150;28;20296;-91
2023/03/24 05:32:03;;;;;;;0.00;0.00;;;12.90;99.90;;;;;;4984664;28;20030;-92
2023/03/24 05:34:29;;;;;;;0.00;0.00;;;;;;;;;;4979871;28;20038;-92
2023/03/24 05:36:55;;;;;;;0.00;0.00;;;;;;;;;;5002735;28;20129;-92
2023/03/24 05:39:21;;;;;;;0.00;0.00;;;;;;;;;;4987755;28;20033;-93
2023/03/24 05:41:47;;;;;;;0.00;0.00;;;;;;;;;;4989336;28;20153;-93
2023/03/24 05:44:13;;;;;;;0.00;0.00;;;;;;;;;;4989382;28;20033;-92
2023/03/24 05:46:45;;;;;;;0.00;0.00;;;12.80;99.90;;;;;;4989389;28;20035;-93
2023/03/24 05:49:11;;;;;;;0.00;0.00;;;15.60;99.90;;;;;;4983439;28;20547;-90
2023/03/24 05:51:37;;;;;;;0.00;0.00;;;;;;;;;;4989314;28;20034;-92
2023/03/24 05:54:04;;;;;;;0.00;0.00;;;12.70;99.90;;;;;;4983867;28;20393;-92
2023/03/24 05:56:31;;;;;;;0.00;0.00;;;;;;;;;;4982049;28;21756;-92
2023/03/24 05:58:57;;;;;;;0.00;0.00;;;;;;;;;;4986080;28;20038;-92
2023/03/24 06:01:24;;;;;;;0.00;0.00;;;;;;;;;;4985548;28;20049;-93
2023/03/24 06:03:50;;;;;;;0.00;0.00;;;;;;;;;;4988380;28;20033;-92
2023/03/24 06:06:17;;;;;;;0.00;0.00;;;;;;;;;;4986544;28;20042;-92
2023/03/24 06:08:46;;;;;;;0.00;0.00;;;;;;;;;;4989886;28;20034;-93
2023/03/24 06:11:12;;;;;;;0.00;0.00;;;;;;;;;;4988380;28;20058;-92
2023/03/24 06:13:38;;;;;;;0.00;0.00;;;;;;;;;;4989982;28;20022;-92
2023/03/24 06:16:05;;;;;;;0.00;0.00;;;;;;;;;;4990706;28;20026;-92
2023/03/24 06:18:32;;;;;;;0.00;0.00;;;;;;;;;;4983796;28;20046;-92
2023/03/24 06:20:58;;;;;;;0.00;0.00;;;;;;;;;;4990221;28;20026;-92
2023/03/24 06:23:27;;;;;;;0.00;0.00;;;;;;;;;;4982731;28;20042;-92
2023/03/24 06:25:57;;;;;;;0.00;0.00;;;12.00;99.90;;;;;;4983873;28;20050;-93
2023/03/24 06:28:25;;;;;;;0.00;0.00;;;12.00;99.90;;;;;;4990986;28;20062;-91
2023/03/24 06:30:50;;;;;;;0.00;0.00;;;;;;;;;;4987071;28;20027;-92
2023/03/24 06:33:16;;;;;;;0.00;0.00;;;;;;;;;;4989333;28;20081;-92
2023/03/24 06:35:43;;;;;;;0.00;0.00;;;;;;;;;;4982047;28;20025;-92
2023/03/24 06:38:10;;;;;;;0.00;0.00;;;;;;;;;;4989196;28;20030;-93
2023/03/24 06:40:36;;;;;;;0.00;0.00;;;;;;;;;;4987533;28;20042;-92
2023/03/24 06:43:02;;;;;;;0.00;0.00;;;;;;;;;;4986551;28;20080;-92
2023/03/24 06:45:28;;;;;;;0.00;0.00;;;;;;;;;;4989092;28;20034;-92
2023/03/24 06:47:57;;;;;;;0.00;0.00;;;;;;;;;;4985425;28;20033;-92
2023/03/24 06:50:31;;;;;;;0.00;0.00;;;;;;;;;;4986358;28;20033;-92
2023/03/24 06:52:57;;;;;;;0.00;0.00;;;;;;;;;;4985332;28;20062;-89
2023/03/24 06:55:23;;;;;;;0.00;0.00;;;;;;;;;;4980758;28;20025;-92
2023/03/24 06:57:49;;;;;;;0.00;0.00;;;;;;;;;;4984237;28;20022;-92
2023/03/24 07:00:15;;;;;;;0.00;0.00;;;;;;;;;;4985336;28;20026;-92
2023/03/24 07:02:41;;;;;;;0.00;0.00;;;11.80;99.90;;;;;;4987395;28;20034;-92
2023/03/24 07:05:08;;;;;;;0.00;0.00;;;11.60;99.90;;;;;;4980490;28;20339;-92
2023/03/24 07:07:35;;;;;;;0.00;0.00;;;;;;;;;;4986961;28;20026;-92
2023/03/24 07:10:02;;;;;;;0.00;0.00;;;11.60;99.90;;;;;;4985944;28;20056;-93
2023/03/24 07:12:29;;;;;;;0.00;0.00;;;;;;;;;;4991863;28;20034;-92
2023/03/24 07:14:56;;;;;;;0.00;0.00;;;;;;;;;;4985772;28;20083;-93
2023/03/24 07:17:22;;;;;;;0.00;0.00;;;;;;;;;;4984913;28;20034;-92
2023/03/24 07:19:48;;;;;;;0.00;0.00;;;;;;;;;;4986614;28;20022;-93
2023/03/24 07:22:14;;;;;;;0.00;0.00;;;;;;;;;;4992746;28;20026;-90
2023/03/24 07:24:40;;;;;;;0.00;0.00;;;;;;;;;;4986073;28;20053;-93
2023/03/24 07:27:06;;;;;;;0.00;0.00;;;;;;;;;;4986610;28;20473;-92
2023/03/24 07:29:32;;;;;;;0.00;0.00;;;;;;;;;;4984398;28;20049;-92
2023/03/24 07:31:59;;;;;;;0.00;0.00;;;;;;;;;;4988903;28;20034;-92
2023/03/24 07:34:26;;;;;;;0.00;0.00;;;;;;;;;;4988327;28;20497;-92
2023/03/24 07:36:52;;;;;;;0.00;0.00;;;;;;;;;;4980605;28;20023;-92
2023/03/24 07:39:18;;;;;;;0.00;0.00;;;;;;;;;;4985095;28;20026;-93
2023/03/24 07:41:44;;;;;;;0.10;0.10;;;;;;;;;;4979721;28;20041;-93
2023/03/24 07:44:10;;;;;;;0.00;0.00;;;;;;;;;;4984974;28;20062;-90
2023/03/24 07:46:36;;;;;;;0.00;0.00;;;;;;;;;;4987764;28;20397;-93
2023/03/24 07:49:02;;;;;;;0.00;0.00;;;12.00;99.90;;;;;;5006750;28;20027;-93
2023/03/24 07:51:28;;;;;;;0.00;0.00;;;;;;;;;;4985428;28;21022;-92
2023/03/24 07:53:54;;;;;;;0.00;0.00;;;;;;;;;;4986338;28;20026;-92
2023/03/24 07:56:20;;;;;;;0.00;0.00;;;;;;;;;;4980085;28;20018;-93
2023/03/24 07:58:46;;;;;;;0.00;0.00;;;;;;;;;;4986515;28;20019;-91
2023/03/24 08:01:13;;;;;;;0.00;0.00;;;;;;;;;;4979611;28;20474;-91
2023/03/24 08:03:42;;;;;;;0.00;0.00;;;;;;;;;;4981022;28;20026;-92
2023/03/24 08:06:08;;;;;;;0.00;0.00;;;;;;;;;;4983777;28;20441;-91
2023/03/24 08:08:35;;;;;;;0.00;0.00;;;11.90;99.90;;;;;;4977718;28;20062;-92
2023/03/24 08:11:01;;;;;;;0.00;0.00;;;;;;;;;;4984560;28;20031;-91
2023/03/24 08:13:27;;;;;;;0.00;0.00;;;;;;;;;;4986611;28;20105;-92
2023/03/24 08:15:53;;;;;;;0.00;0.00;;;;;;;;;;4986083;28;20113;-91
2023/03/24 08:18:20;;;;;;;0.00;0.00;;;12.00;99.90;;;;;;4983252;28;20038;-92
2023/03/24 08:20:47;;;;;;;0.00;0.00;;;12.00;99.90;;;;;;4979353;28;20027;-91
2023/03/24 08:23:13;;;;;;;0.00;0.00;;;;;;;;;;4988011;28;20064;-92
2023/03/24 08:25:39;;;;;;;0.00;0.00;;;;;;;;;;4980527;28;20135;-91
2023/03/24 08:28:05;;;;;;;0.00;0.00;;;;;;;;;;4982722;28;20481;-91
2023/03/24 08:30:31;;;;;;;0.00;0.00;;;;;;;;;;4984240;28;20026;-92
2023/03/24 08:32:59;;;;;;;0.00;0.00;;;12.20;99.90;;;;;;4986983;28;20052;-92
2023/03/24 08:35:31;;;;;;;0.00;0.00;;;12.30;99.90;;;;;;4976140;28;20489;-91
2023/03/24 08:37:58;;;;;;;0.00;0.00;;;;;;;;;;4983604;28;20038;-91
2023/03/24 08:40:25;;;;;;;0.00;0.00;;;12.40;99.90;;;;;;4985295;28;20531;-92
2023/03/24 08:42:53;;;;;;;0.00;0.00;;;12.60;99.90;;;;;;4981445;28;20027;-93
2023/03/24 08:45:22;;;;;;;0.00;0.00;;;12.70;99.90;;;;;;4985314;28;20798;-92
2023/03/24 08:47:49;;;;;;;0.00;0.00;;;12.80;99.90;;;;;;4979868;28;20103;-92
2023/03/24 08:50:15;;;;;;;0.00;0.00;;;;;;;;;;4981174;28;20131;-91
2023/03/24 08:52:41;;;;;;;0.00;0.00;;;;;;;;;;4991045;28;20033;-91
2023/03/24 08:55:08;;;;;;;0.00;0.00;;;12.70;99.90;;;;;;4989824;28;20023;-91
2023/03/24 08:57:35;;;;;;;0.00;0.00;;;12.70;99.90;;;;;;4989762;28;20034;-92
2023/03/24 09:00:01;;;;;;;0.00;0.00;;;;;;;;;;4990647;28;20058;-91
2023/03/24 09:02:26;;;;;;;0.00;0.00;;;13.10;99.90;;;;;;4989124;28;20037;-91
2023/03/24 09:04:53;;;;;;;0.00;0.00;;;13.00;99.90;;;;;;4999980;28;20030;-92
2023/03/24 09:07:19;;;;;;;0.00;0.00;;;;;;;;;;4992161;28;20022;-91
2023/03/24 09:09:45;;;;;;;0.00;0.00;;;;;;;;;;4989292;28;20019;-91
2023/03/24 09:12:11;;;;;;;0.00;0.00;;;;;;;;;;4978944;28;20027;-91
2023/03/24 09:14:37;;;;;;;0.00;0.00;;;;;;;;;;4983417;28;20027;-92
2023/03/24 09:17:03;;;;;;;0.00;0.00;;;;;;;;;;4979942;28;20030;-92
2023/03/24 09:19:30;;;;;;;0.00;0.00;;;;;;;;;;4985222;28;20026;-92
2023/03/24 09:21:56;;;;;;;0.00;0.00;;;;;;;;;;4986530;28;20031;-91
2023/03/24 09:24:23;;;;;;;0.00;0.00;;;13.50;99.90;;;;;;4986350;28;20042;-92
2023/03/24 09:26:49;;;;;;;0.00;0.00;;;;;;;;;;4989146;28;20177;-92
2023/03/24 09:29:15;;;;;;;0.00;0.00;;;;;;;;;;4985854;28;20022;-90
2023/03/24 09:31:41;;;;;;;0.00;0.00;;;;;;;;;;4990455;28;20030;-92
2023/03/24 09:34:07;;;;;;;0.00;0.00;;;;;;;;;;4987452;28;20058;-92
2023/03/24 09:36:33;;;;;;;0.00;0.00;;;;;;;;;;4982415;28;20093;-92
2023/03/24 09:38:59;;;;;;;0.00;0.00;;;;;;;;;;4988240;28;20081;-90
2023/03/24 09:41:30;;;;;;;0.00;0.00;;;14.40;99.90;;;;;;4989557;28;20030;-91
2023/03/24 09:44:26;;;;;;;0.00;0.00;;;14.40;99.90;;;;;;4994377;28;20098;-90
2023/03/24 09:47:22;;;;;;;0.00;0.00;;;14.50;99.90;;;;;;4993153;28;20031;-92
2023/03/24 09:49:49;;;;;;;0.00;0.00;;;;;;;;;;4991253;28;20034;-91
2023/03/24 09:52:31;;;;;;;0.00;0.00;;;14.20;99.90;;;;;;4993724;28;20042;-92
2023/03/24 09:54:58;;;;;;;0.00;0.00;;;14.10;99.90;;;;;;4985903;28;20034;-92
2023/03/24 09:57:29;;;;;;;0.00;0.00;;;14.20;99.90;;;;;;4988506;28;20029;-92
2023/03/24 09:59:55;;;;;;;0.00;0.00;;;;;;;;;;4988257;28;20485;-91
2023/03/24 10:02:22;;;;;;;0.00;0.00;;;;;;;;;;4988455;28;20031;-92
2023/03/24 10:04:48;;;;;;;0.00;0.00;;;14.50;99.90;;;;;;4984289;28;20066;-91
2023/03/24 10:07:36;;;;;;;0.10;0.10;;;14.70;99.90;;;;;;4988646;28;20041;-91
2023/03/24 10:10:08;;;;;;;0.00;0.00;;;14.60;99.90;;;;;;4988196;28;20121;-93
2023/03/24 10:12:46;;;;;;;0.00;0.00;;;14.60;99.90;;;;;;4985679;28;20120;-91
2023/03/24 10:15:37;;;;;;;0.00;0.00;;;14.80;99.90;;;;;;4987218;28;20030;-92
2023/03/24 10:18:25;;;;;;;0.00;0.00;;;14.80;99.90;;;;;;4987644;28;20489;-92
2023/03/24 10:20:59;;;;;;;0.00;0.00;;;14.80;99.90;;;;;;4985828;28;20030;-92
2023/03/24 10:23:25;;;;;;;0.00;0.00;;;;;;;;;;4990411;28;20039;-92
2023/03/24 10:26:13;;;;;;;0.00;0.00;;;14.60;99.90;;;;;;4988970;28;20793;-91
2023/03/24 10:29:03;;;;;;;0.00;0.00;;;14.70;99.90;;;;;;4992858;28;20061;-91
2023/03/24 10:31:32;;;;;;;0.00;0.00;;;14.70;99.90;;;;;;4984876;28;20058;-92
2023/03/24 10:33:58;;;;;;;0.00;0.00;;;;;;;;;;4985571;28;20030;-92
2023/03/24 10:36:24;;;;;;;0.00;0.00;;;;;;;;;;4985733;28;20034;-92
2023/03/24 10:38:50;;;;;;;0.00;0.00;;;;;;;;;;4988379;28;20141;-92
2023/03/24 10:41:24;;;;;;;0.00;0.00;;;14.90;99.90;;;;;;4985031;28;20034;-91
2023/03/24 10:43:53;;;;;;;0.10;0.10;;;14.80;99.90;;;;;;4990686;28;20125;-92
2023/03/24 10:46:25;;;;;;;0.00;0.00;;;14.90;99.90;;;;;;4992722;28;20034;-91
2023/03/24 10:49:04;;;;;;;0.00;0.00;;;14.90;99.90;;;;;;4986137;28;20030;-92
2023/03/24 10:51:33;;;;;;;0.00;0.00;;;14.80;99.90;;;;;;4988810;28;20023;-92
2023/03/24 10:54:29;;;;;;;0.10;0.10;;;14.50;99.90;;;;;;5004987;28;20085;-91
2023/03/24 10:56:59;;;;;;;0.00;0.00;;;14.50;99.90;;;;;;4974370;28;20333;-91
2023/03/24 10:59:37;;;;;;;0.00;0.00;;;16.80;99.90;;;;;;4985436;28;20023;-92
2023/03/24 11:02:20;;;;;;;0.00;0.00;;;14.60;99.90;;;;;;4989852;28;20029;-93
2023/03/24 11:04:58;;;;;;;0.00;0.00;;;16.20;99.90;;;;;;4982354;28;20018;-92
2023/03/24 11:07:32;;;;;;;0.00;0.00;;;14.50;99.90;;;;;;4993029;28;20026;-92
2023/03/24 11:10:12;;;;;;;0.00;0.00;;;14.60;99.90;;;;;;4986656;28;20019;-91
2023/03/24 11:12:41;;;;;;;0.00;0.00;;;14.80;99.90;;;;;;4986103;28;20073;-91
2023/03/24 11:15:28;;;;;;;0.00;0.00;;;14.80;99.90;;;;;;5005741;28;20028;-91
2023/03/24 11:18:00;;;;;;;0.00;0.00;;;14.80;99.90;;;;;;4986252;28;20823;-91
2023/03/24 11:20:34;;;;;;;0.00;0.00;;;14.70;99.90;;;;;;4991081;28;20029;-92
2023/03/24 11:23:08;;;;;;;0.00;0.00;;;14.60;99.90;;;;;;4986293;28;20049;-92
2023/03/24 11:25:40;;;;;;;0.00;0.00;;;14.50;99.90;;;;;;5057252;23;20049;-88
2023/03/24 11:28:17;;;;;;;0.00;0.00;;;14.60;99.90;;;;;;5021635;28;20040;-87
2023/03/24 11:30:46;;;;;;;0.00;0.00;;;14.50;99.90;;;;;;5024897;28;20028;-87
2023/03/24 11:33:24;;;;;;;0.10;0.10;;;14.70;99.70;;;;;;5020716;28;20077;-88
2023/03/24 11:35:50;;;;;;;0.00;0.00;;;14.80;99.90;;;;;;5011117;28;20168;-89
2023/03/24 11:38:18;;;;;;;0.00;0.00;;;14.80;99.60;;;;;;5006302;28;20687;-89
2023/03/24 11:40:58;;;;;;;0.00;0.00;;;15.10;99.90;;;;;;5001522;28;20031;-89
2023/03/24 11:43:26;;;;;;;0.00;0.00;;;15.10;98.90;;;;;;5004537;28;20575;-88
2023/03/24 11:46:12;;;;;;;0.00;0.00;;;15.10;98.80;;;;;;5003913;28;20038;-88
2023/03/24 11:48:53;;;;;;;0.00;0.00;;;15.20;99.20;;;;;;4999917;28;20160;-88
2023/03/24 11:51:34;;;;;;;0.00;0.00;;;15.30;98.80;;;;;;5017171;28;20026;-89
2023/03/24 11:54:03;;;;;;;0.00;0.00;;;15.40;99.90;;;;;;5009894;28;20022;-87
2023/03/24 11:56:40;;;;;;;0.00;0.00;;;15.50;97.90;;;;;;5028568;28;20030;-87
2023/03/24 11:59:33;;;;;;;0.00;0.00;;;15.20;97.90;;;;;;5009688;28;20030;-85
2023/03/24 12:02:12;;;;;;;0.00;0.00;;;15.20;99.20;;;;;;5001547;28;20060;-88
2023/03/24 12:05:16;;;;;;;0.00;0.00;;;15.60;96.80;;;;;;5004919;28;20493;-88
2023/03/24 12:08:11;;;;;;;0.00;0.00;;;15.40;96.40;;;;;;5024649;28;20025;-90
2023/03/24 12:10:44;;;;;;;0.00;0.00;;;15.20;98.00;;;;;;4990256;28;20469;-88
2023/03/24 12:13:10;;;;;;;0.00;0.00;;;;;;;;;;5022442;28;20416;-88
2023/03/24 12:15:54;;;;;;;0.00;0.00;;;15.20;98.70;;;;;;5006092;28;20030;-88
2023/03/24 12:18:42;;;;;;;0.00;0.00;;;15.10;96.80;;;;;;5006745;28;20025;-86
2023/03/24 12:21:41;;;;;;;0.00;0.00;;;14.90;97.00;;;;;;5004931;28;20030;-89
2023/03/24 12:24:24;;;;;;;0.00;0.00;;;15.10;97.10;;;;;;4953880;28;20141;-89
2023/03/24 12:26:54;;;;;;;0.00;0.00;;;15.10;97.90;;;;;;5004843;28;20029;-89
2023/03/24 12:29:42;;;;;;;0.00;0.00;;;15.20;97.00;;;;;;5005712;28;20484;-88
2023/03/24 12:32:37;;;;;;;0.00;0.00;;;15.00;97.20;;;;;;5005006;28;20030;-89
2023/03/24 12:35:33;;;;;;;0.00;0.00;;;14.90;97.50;;;;;;5005947;28;20511;-88
2023/03/24 12:38:38;;;;;;;0.00;0.00;;;15.00;96.60;;;;;;5004424;28;20018;-88
2023/03/24 12:41:28;;;;;;;0.00;0.00;;;15.00;96.00;;;;;;5004306;28;20551;-89
2023/03/24 12:44:19;;;;;;;0.00;0.00;;;14.50;98.10;;;;;;5010710;28;20017;-89
2023/03/24 12:47:16;;;;;;;0.00;0.00;;;14.70;97.30;;;;;;5003099;28;20086;-89
2023/03/24 12:49:42;;;;;;;0.00;0.00;;;;;;;;;;5000415;28;20026;-88
2023/03/24 12:52:08;;;;;;;0.00;0.00;;;;;;;;;;5005717;28;20491;-88
2023/03/24 12:55:13;;;;;;;0.00;0.00;;;14.50;98.10;;;;;;5007699;28;20030;-88
2023/03/24 12:57:47;;;;;;;0.00;0.00;;;14.80;99.40;;;;;;5020797;28;20057;-88
2023/03/24 13:00:13;;;;;;;0.00;0.00;;;;;;;;;;5006384;28;20495;-89
2023/03/24 13:02:49;;;;;;;0.00;0.00;;;14.80;98.00;;;;;;5020922;28;20030;-88
2023/03/24 13:05:20;;;;;;;0.00;0.00;;;14.90;98.70;;;;;;5025156;28;20038;-89
2023/03/24 13:07:52;;;;;;;0.00;0.00;;;14.90;97.70;;;;;;5018527;28;20032;-86
2023/03/24 13:10:26;;;;;;;0.00;0.00;;;16.00;98.20;;;;;;5004072;28;20431;-85
2023/03/24 13:13:16;;;;;;;0.00;0.00;;;14.90;97.70;;;;;;5019020;28;20128;-89
2023/03/24 13:15:55;;;;;;;0.00;0.00;;;15.10;98.70;;;;;;4994213;28;20034;-89
2023/03/24 13:18:31;;;;;;;0.08;0.08;;;15.40;97.80;;;;;;5005926;28;20112;-87
2023/03/24 13:21:03;;;;;;;0.00;0.00;;;15.30;97.80;;;;;;5018182;28;20035;-88
2023/03/24 13:23:56;;;;;;;0.00;0.00;;;15.40;98.30;;;;;;5007374;28;20500;-86
2023/03/24 13:26:39;;;;;;;0.00;0.00;;;15.40;98.30;;;;;;5004166;28;20029;-87
2023/03/24 13:29:26;;;;;;;0.00;0.00;;;15.50;96.80;;;;;;4995486;28;20022;-88
2023/03/24 13:32:04;;;;;;;0.00;0.00;;;14.50;96.50;;;;;;5001132;28;20029;-88
2023/03/24 13:34:39;;;;;;;0.00;0.00;;;15.10;97.70;;;;;;5018740;28;20087;-88
2023/03/24 13:37:21;;;;;;;0.00;0.00;;;15.00;97.60;;;;;;5007403;28;20117;-88
2023/03/24 13:39:56;;;;;;;0.00;0.00;;;15.30;98.80;;;;;;5007010;28;20025;-86
2023/03/24 13:42:40;;;;;;;0.00;0.00;;;15.30;99.10;;;;;;5005928;28;20057;-89
2023/03/24 13:45:07;;;;;;;0.00;0.00;;;;;;;;;;5006289;28;21279;-86
2023/03/24 13:48:01;;;;;;;0.00;0.00;;;15.40;99.10;;;;;;5010172;28;20064;-88
2023/03/24 13:50:27;;;;;;;0.00;0.00;;;14.60;98.60;;;;;;5003811;28;20030;-87
2023/03/24 13:52:53;;;;;;;0.00;0.00;;;15.10;98.10;;;;;;5009739;28;20096;-87
2023/03/24 13:55:25;;;;;;;0.00;0.00;;;15.00;99.50;;;;;;5005237;28;20068;-87
2023/03/24 13:57:58;;;;;;;0.00;0.00;;;13.40;99.20;;;;;;5009079;28;20105;-87
2023/03/24 14:00:25;;;;;;;0.00;0.00;;;14.10;99.90;;;;;;5012215;28;20029;-87
2023/03/24 14:03:04;;;;;;;0.00;0.00;;;14.00;99.90;;;;;;5013540;28;20514;-88
2023/03/24 14:05:56;;;;;;;0.00;0.00;;;13.80;99.90;;;;;;5013711;28;20061;-88
2023/03/24 14:08:45;;;;;;;0.00;0.00;;;13.40;99.90;;;;;;5011923;28;20034;-86
2023/03/24 14:11:29;;;;;;;0.00;0.00;;;13.20;99.90;;;;;;5005098;28;20030;-88
2023/03/24 14:14:13;;;;;;;0.00;0.00;;;12.80;99.90;;;;;;5007423;28;20026;-87
2023/03/24 14:17:06;;;;;;;0.00;0.00;;;12.80;99.90;;;;;;5017718;28;20364;-87